sensor_id;sensor_type;location;lat;lon;timestamp;pressure;altitude;pressure_sealevel;temperature;humidity
68329;BME280;55182;56.864;60.554;2023-01-28T00:01:36;76761.78;;;-143.60;78.91
68329;BME280;55182;56.864;60.554;2023-01-28T00:04:01;76763.81;;;-143.60;78.91
68329;BME280;55182;56.864;60.554;2023-01-28T00:06:26;76761.78;;;-143.60;79.00
68329;BME280;55182;56.864;60.554;2023-01-28T00:08:52;76757.78;;;-143.60;79.06
68329;BME280;55182;56.864;60.554;2023-01-28T00:11:17;76761.78;;;-143.60;78.68
68329;BME280;55182;56.864;60.554;2023-01-28T00:13:43;76761.78;;;-143.60;78.73
68329;BME280;55182;56.864;60.554;2023-01-28T00:16:08;76753.75;;;-143.60;78.96
68329;BME280;55182;56.864;60.554;2023-01-28T00:18:34;76761.78;;;-143.60;78.75
68329;BME280;55182;56.864;60.554;2023-01-28T00:21:00;76761.78;;;-143.60;78.96
68329;BME280;55182;56.864;60.554;2023-01-28T00:23:27;76753.75;;;-143.60;78.90
68329;BME280;55182;56.864;60.554;2023-01-28T00:25:52;76751.75;;;-143.60;78.94
68329;BME280;55182;56.864;60.554;2023-01-28T00:28:18;76749.75;;;-143.60;78.84
68329;BME280;55182;56.864;60.554;2023-01-28T00:30:43;76755.75;;;-143.60;79.19
68329;BME280;55182;56.864;60.554;2023-01-28T00:33:09;76753.75;;;-143.60;79.11
68329;BME280;55182;56.864;60.554;2023-01-28T00:35:34;76755.75;;;-143.60;79.44
68329;BME280;55182;56.864;60.554;2023-01-28T00:38:02;76757.78;;;-143.60;79.45
68329;BME280;55182;56.864;60.554;2023-01-28T00:40:28;76753.75;;;-143.60;79.47
68329;BME280;55182;56.864;60.554;2023-01-28T00:42:55;76741.69;;;-143.60;79.61
68329;BME280;55182;56.864;60.554;2023-01-28T00:45:20;76749.75;;;-143.60;79.80
68329;BME280;55182;56.864;60.554;2023-01-28T00:47:46;76749.75;;;-143.60;79.55
68329;BME280;55182;56.864;60.554;2023-01-28T00:50:11;76745.72;;;-143.60;79.58
68329;BME280;55182;56.864;60.554;2023-01-28T00:52:37;76745.72;;;-143.60;79.47
68329;BME280;55182;56.864;60.554;2023-01-28T00:55:03;76747.72;;;-143.60;79.55
68329;BME280;55182;56.864;60.554;2023-01-28T00:57:28;76747.72;;;-143.60;79.65
68329;BME280;55182;56.864;60.554;2023-01-28T00:59:54;76757.78;;;-143.60;80.01
68329;BME280;55182;56.864;60.554;2023-01-28T01:02:20;76753.75;;;-143.60;80.10
68329;BME280;55182;56.864;60.554;2023-01-28T01:04:46;76763.81;;;-143.60;80.19
68329;BME280;55182;56.864;60.554;2023-01-28T01:07:11;76765.81;;;-143.60;79.96
68329;BME280;55182;56.864;60.554;2023-01-28T01:09:36;76755.75;;;-143.60;80.07
68329;BME280;55182;56.864;60.554;2023-01-28T01:12:02;76761.78;;;-143.60;80.22
68329;BME280;55182;56.864;60.554;2023-01-28T01:14:27;76753.75;;;-143.60;80.24
68329;BME280;55182;56.864;60.554;2023-01-28T01:16:53;76745.72;;;-143.60;80.00
68329;BME280;55182;56.864;60.554;2023-01-28T01:19:18;76757.78;;;-143.60;79.72
68329;BME280;55182;56.864;60.554;2023-01-28T01:21:44;76747.72;;;-143.60;79.78
68329;BME280;55182;56.864;60.554;2023-01-28T01:24:11;76747.72;;;-143.60;79.68
68329;BME280;55182;56.864;60.554;2023-01-28T01:26:37;76755.75;;;-143.60;79.69
68329;BME280;55182;56.864;60.554;2023-01-28T01:29:02;76759.78;;;-143.60;79.60
68329;BME280;55182;56.864;60.554;2023-01-28T01:31:27;76751.75;;;-143.60;79.68
68329;BME280;55182;56.864;60.554;2023-01-28T01:33:53;76739.69;;;-143.60;79.46
68329;BME280;55182;56.864;60.554;2023-01-28T01:36:19;76745.72;;;-143.60;79.45
68329;BME280;55182;56.864;60.554;2023-01-28T01:38:44;76749.75;;;-143.60;79.41
68329;BME280;55182;56.864;60.554;2023-01-28T01:41:29;76741.69;;;-143.60;79.38
68329;BME280;55182;56.864;60.554;2023-01-28T01:43:58;76745.72;;;-143.60;79.37
68329;BME280;55182;56.864;60.554;2023-01-28T01:46:34;76753.75;;;-143.60;79.47
68329;BME280;55182;56.864;60.554;2023-01-28T01:49:05;76741.69;;;-143.60;79.48
68329;BME280;55182;56.864;60.554;2023-01-28T01:51:32;76767.81;;;-143.60;79.11
68329;BME280;55182;56.864;60.554;2023-01-28T01:53:58;76757.78;;;-143.60;79.03
68329;BME280;55182;56.864;60.554;2023-01-28T01:56:26;76765.81;;;-143.60;79.14
68329;BME280;55182;56.864;60.554;2023-01-28T01:58:52;76751.75;;;-143.60;79.18
68329;BME280;55182;56.864;60.554;2023-01-28T02:01:20;76761.78;;;-143.60;79.34
68329;BME280;55182;56.864;60.554;2023-01-28T02:04:09;76753.75;;;-143.60;79.36
68329;BME280;55182;56.864;60.554;2023-01-28T02:06:32;76765.81;;;-143.60;79.18
68329;BME280;55182;56.864;60.554;2023-01-28T02:08:59;76753.75;;;-143.60;78.90
68329;BME280;55182;56.864;60.554;2023-01-28T02:11:25;76757.78;;;-143.60;78.98
68329;BME280;55182;56.864;60.554;2023-01-28T02:13:52;76761.78;;;-143.60;79.00
68329;BME280;55182;56.864;60.554;2023-01-28T02:16:20;76753.75;;;-143.60;79.06
68329;BME280;55182;56.864;60.554;2023-01-28T02:18:46;76757.78;;;-143.60;79.00
68329;BME280;55182;56.864;60.554;2023-01-28T02:28:48;76767.81;;;-143.60;79.19
68329;BME280;55182;56.864;60.554;2023-01-28T02:31:18;76763.81;;;-143.60;79.34
68329;BME280;55182;56.864;60.554;2023-01-28T02:33:49;76749.75;;;-143.60;79.45
68329;BME280;55182;56.864;60.554;2023-01-28T02:38:48;76757.78;;;-143.60;79.15
68329;BME280;55182;56.864;60.554;2023-01-28T02:41:17;76753.75;;;-143.60;79.19
68329;BME280;55182;56.864;60.554;2023-01-28T02:43:47;76745.72;;;-143.60;78.96
68329;BME280;55182;56.864;60.554;2023-01-28T02:46:14;76753.75;;;-143.60;79.11
68329;BME280;55182;56.864;60.554;2023-01-28T02:48:42;76757.78;;;-143.60;79.28
68329;BME280;55182;56.864;60.554;2023-01-28T02:51:15;76765.81;;;-143.60;79.13
68329;BME280;55182;56.864;60.554;2023-01-28T02:53:49;76763.81;;;-143.60;79.08
68329;BME280;55182;56.864;60.554;2023-01-28T02:56:19;76763.81;;;-143.60;79.13
68329;BME280;55182;56.864;60.554;2023-01-28T02:58:51;76771.84;;;-143.60;79.06
68329;BME280;55182;56.864;60.554;2023-01-28T03:04:02;76773.84;;;-143.60;78.93
68329;BME280;55182;56.864;60.554;2023-01-28T03:06:35;76777.88;;;-143.60;78.84
68329;BME280;55182;56.864;60.554;2023-01-28T03:09:03;76773.84;;;-143.60;78.39
68329;BME280;55182;56.864;60.554;2023-01-28T03:11:31;76769.84;;;-143.60;78.51
68329;BME280;55182;56.864;60.554;2023-01-28T03:13:57;76771.84;;;-143.60;78.32
68329;BME280;55182;56.864;60.554;2023-01-28T03:16:23;76773.84;;;-143.60;78.41
68329;BME280;55182;56.864;60.554;2023-01-28T03:18:49;76777.88;;;-143.60;78.24
68329;BME280;55182;56.864;60.554;2023-01-28T03:21:30;76761.78;;;-143.60;78.16
68329;BME280;55182;56.864;60.554;2023-01-28T03:26:34;76761.78;;;-143.60;77.68
68329;BME280;55182;56.864;60.554;2023-01-28T03:29:04;76757.78;;;-143.60;77.61
68329;BME280;55182;56.864;60.554;2023-01-28T03:31:31;76753.75;;;-143.60;77.61
68329;BME280;55182;56.864;60.554;2023-01-28T03:33:59;76747.72;;;-143.60;77.36
68329;BME280;55182;56.864;60.554;2023-01-28T03:36:25;76767.81;;;-143.60;77.39
68329;BME280;55182;56.864;60.554;2023-01-28T03:38:51;76757.78;;;-143.60;77.45
68329;BME280;55182;56.864;60.554;2023-01-28T03:41:20;76757.78;;;-143.60;77.08
68329;BME280;55182;56.864;60.554;2023-01-28T03:43:47;76753.75;;;-143.60;76.93
68329;BME280;55182;56.864;60.554;2023-01-28T03:46:13;76743.72;;;-143.60;77.00
68329;BME280;55182;56.864;60.554;2023-01-28T03:48:38;76755.75;;;-143.60;76.65
68329;BME280;55182;56.864;60.554;2023-01-28T03:51:05;76753.75;;;-143.60;76.59
68329;BME280;55182;56.864;60.554;2023-01-28T03:53:31;76751.75;;;-143.60;76.86
68329;BME280;55182;56.864;60.554;2023-01-28T03:55:57;76753.75;;;-143.60;76.76
68329;BME280;55182;56.864;60.554;2023-01-28T03:58:23;76755.75;;;-143.60;76.95
68329;BME280;55182;56.864;60.554;2023-01-28T04:00:49;76757.78;;;-143.60;76.79
68329;BME280;55182;56.864;60.554;2023-01-28T04:03:16;76753.75;;;-143.60;76.71
68329;BME280;55182;56.864;60.554;2023-01-28T04:06:05;76753.75;;;-143.60;76.83
68329;BME280;55182;56.864;60.554;2023-01-28T04:08:46;76757.78;;;-143.60;76.57
68329;BME280;55182;56.864;60.554;2023-01-28T04:11:28;76751.75;;;-143.60;76.90
68329;BME280;55182;56.864;60.554;2023-01-28T04:13:55;76765.81;;;-143.60;76.78
68329;BME280;55182;56.864;60.554;2023-01-28T04:16:22;76757.78;;;-143.60;76.64
68329;BME280;55182;56.864;60.554;2023-01-28T04:18:47;76763.81;;;-143.60;76.46
68329;BME280;55182;56.864;60.554;2023-01-28T04:21:13;76763.81;;;-143.60;76.59
68329;BME280;55182;56.864;60.554;2023-01-28T04:23:38;76759.78;;;-143.60;76.86
68329;BME280;55182;56.864;60.554;2023-01-28T04:26:05;76755.75;;;-143.60;77.00
68329;BME280;55182;56.864;60.554;2023-01-28T04:28:31;76753.75;;;-143.60;76.68
68329;BME280;55182;56.864;60.554;2023-01-28T04:30:57;76769.84;;;-143.60;76.56
68329;BME280;55182;56.864;60.554;2023-01-28T04:33:43;76763.81;;;-143.60;76.43
68329;BME280;55182;56.864;60.554;2023-01-28T04:36:27;76749.75;;;-143.60;76.23
68329;BME280;55182;56.864;60.554;2023-01-28T04:39:11;76761.78;;;-143.60;76.22
68329;BME280;55182;56.864;60.554;2023-01-28T04:41:36;76767.81;;;-143.60;76.19
68329;BME280;55182;56.864;60.554;2023-01-28T04:44:18;76773.84;;;-143.60;76.04
68329;BME280;55182;56.864;60.554;2023-01-28T04:47:13;76781.91;;;-143.60;76.28
68329;BME280;55182;56.864;60.554;2023-01-28T04:50:03;76771.84;;;-143.60;76.03
68329;BME280;55182;56.864;60.554;2023-01-28T04:52:55;76777.88;;;-143.60;75.99
68329;BME280;55182;56.864;60.554;2023-01-28T04:55:50;76785.91;;;-143.60;75.97
68329;BME280;55182;56.864;60.554;2023-01-28T04:58:16;76785.91;;;-143.60;76.07
68329;BME280;55182;56.864;60.554;2023-01-28T05:00:43;76791.94;;;-143.60;75.99
68329;BME280;55182;56.864;60.554;2023-01-28T05:03:08;76789.94;;;-143.60;75.90
68329;BME280;55182;56.864;60.554;2023-01-28T05:05:34;76791.94;;;-143.60;75.76
68329;BME280;55182;56.864;60.554;2023-01-28T05:08:15;76806.00;;;-143.60;75.63
68329;BME280;55182;56.864;60.554;2023-01-28T05:10:42;76779.88;;;-143.60;75.57
68329;BME280;55182;56.864;60.554;2023-01-28T05:13:08;76789.94;;;-143.60;75.75
68329;BME280;55182;56.864;60.554;2023-01-28T05:15:34;76781.91;;;-143.60;75.91
68329;BME280;55182;56.864;60.554;2023-01-28T05:17:59;76775.88;;;-143.60;75.78
68329;BME280;55182;56.864;60.554;2023-01-28T05:20:28;76769.84;;;-143.60;75.85
68329;BME280;55182;56.864;60.554;2023-01-28T05:22:58;76767.81;;;-143.60;76.03
68329;BME280;55182;56.864;60.554;2023-01-28T05:25:33;76771.84;;;-143.60;75.78
68329;BME280;55182;56.864;60.554;2023-01-28T05:27:58;76757.78;;;-143.60;75.89
68329;BME280;55182;56.864;60.554;2023-01-28T05:30:24;76765.81;;;-143.60;75.68
68329;BME280;55182;56.864;60.554;2023-01-28T05:32:53;76751.75;;;-143.60;75.96
68329;BME280;55182;56.864;60.554;2023-01-28T05:35:20;76755.75;;;-143.60;75.97
68329;BME280;55182;56.864;60.554;2023-01-28T05:37:46;76753.75;;;-143.60;75.89
68329;BME280;55182;56.864;60.554;2023-01-28T05:40:11;76745.72;;;-143.60;75.91
68329;BME280;55182;56.864;60.554;2023-01-28T05:42:37;76745.72;;;-143.60;75.96
68329;BME280;55182;56.864;60.554;2023-01-28T05:45:23;76741.69;;;-143.60;75.86
68329;BME280;55182;56.864;60.554;2023-01-28T05:48:24;76745.72;;;-143.60;75.57
68329;BME280;55182;56.864;60.554;2023-01-28T05:51:10;76737.69;;;-143.60;75.61
68329;BME280;55182;56.864;60.554;2023-01-28T05:53:38;76745.72;;;-143.60;75.53
68329;BME280;55182;56.864;60.554;2023-01-28T05:56:05;76743.72;;;-143.60;75.65
68329;BME280;55182;56.864;60.554;2023-01-28T05:58:32;76733.66;;;-143.60;76.12
68329;BME280;55182;56.864;60.554;2023-01-28T06:01:00;76727.63;;;-143.60;75.73
68329;BME280;55182;56.864;60.554;2023-01-28T06:03:35;76729.63;;;-143.60;75.94
68329;BME280;55182;56.864;60.554;2023-01-28T06:06:01;76733.66;;;-143.60;75.85
68329;BME280;55182;56.864;60.554;2023-01-28T06:08:27;76729.63;;;-143.60;75.89
68329;BME280;55182;56.864;60.554;2023-01-28T06:10:53;76721.59;;;-143.60;75.96
68329;BME280;55182;56.864;60.554;2023-01-28T06:13:21;76721.59;;;-143.60;75.61
68329;BME280;55182;56.864;60.554;2023-01-28T06:16:06;76713.56;;;-143.60;75.54
68329;BME280;55182;56.864;60.554;2023-01-28T06:18:41;76713.56;;;-143.60;75.23
68329;BME280;55182;56.864;60.554;2023-01-28T06:21:07;76721.59;;;-143.60;75.43
68329;BME280;55182;56.864;60.554;2023-01-28T06:23:34;76721.59;;;-143.60;75.53
68329;BME280;55182;56.864;60.554;2023-01-28T06:26:02;76717.56;;;-143.60;75.84
68329;BME280;55182;56.864;60.554;2023-01-28T06:28:27;76721.59;;;-143.60;75.73
68329;BME280;55182;56.864;60.554;2023-01-28T06:30:53;76717.56;;;-143.60;75.78
68329;BME280;55182;56.864;60.554;2023-01-28T06:33:19;76725.63;;;-143.60;75.59
68329;BME280;55182;56.864;60.554;2023-01-28T06:35:45;76741.69;;;-143.60;75.63
68329;BME280;55182;56.864;60.554;2023-01-28T06:38:11;76753.75;;;-143.60;76.30
68329;BME280;55182;56.864;60.554;2023-01-28T06:40:37;76757.78;;;-143.60;76.26
68329;BME280;55182;56.864;60.554;2023-01-28T06:43:03;76769.84;;;-143.60;76.80
68329;BME280;55182;56.864;60.554;2023-01-28T06:45:29;76773.84;;;-143.60;76.86
68329;BME280;55182;56.864;60.554;2023-01-28T06:47:55;76771.84;;;-143.60;76.93
68329;BME280;55182;56.864;60.554;2023-01-28T06:50:21;76765.81;;;-143.60;77.08
68329;BME280;55182;56.864;60.554;2023-01-28T06:52:47;76773.84;;;-143.60;77.04
68329;BME280;55182;56.864;60.554;2023-01-28T06:55:12;76761.78;;;-143.60;76.82
68329;BME280;55182;56.864;60.554;2023-01-28T06:57:38;76745.72;;;-143.60;76.70
68329;BME280;55182;56.864;60.554;2023-01-28T07:00:05;76725.63;;;-143.60;76.19
68329;BME280;55182;56.864;60.554;2023-01-28T07:02:30;76729.63;;;-143.60;75.67
68329;BME280;55182;56.864;60.554;2023-01-28T07:04:56;76741.69;;;-143.60;75.27
68329;BME280;55182;56.864;60.554;2023-01-28T07:07:21;76739.69;;;-143.60;75.55
68329;BME280;55182;56.864;60.554;2023-01-28T07:09:46;76731.66;;;-143.60;75.23
68329;BME280;55182;56.864;60.554;2023-01-28T07:12:12;76725.63;;;-143.60;74.79
68329;BME280;55182;56.864;60.554;2023-01-28T07:14:38;76733.66;;;-143.60;74.73
68329;BME280;55182;56.864;60.554;2023-01-28T07:17:03;76721.59;;;-143.60;74.95
68329;BME280;55182;56.864;60.554;2023-01-28T07:19:30;76717.56;;;-143.60;75.04
68329;BME280;55182;56.864;60.554;2023-01-28T07:21:56;76709.53;;;-143.60;74.72
68329;BME280;55182;56.864;60.554;2023-01-28T07:24:21;76721.59;;;-143.60;74.68
68329;BME280;55182;56.864;60.554;2023-01-28T07:26:47;76709.53;;;-143.60;74.67
68329;BME280;55182;56.864;60.554;2023-01-28T07:29:13;76709.53;;;-143.60;74.45
68329;BME280;55182;56.864;60.554;2023-01-28T07:31:38;76701.50;;;-143.60;74.17
68329;BME280;55182;56.864;60.554;2023-01-28T07:34:04;76693.47;;;-143.60;73.94
68329;BME280;55182;56.864;60.554;2023-01-28T07:36:30;76701.50;;;-143.60;73.29
68329;BME280;55182;56.864;60.554;2023-01-28T07:38:56;76691.44;;;-143.60;73.39
68329;BME280;55182;56.864;60.554;2023-01-28T07:41:23;76701.50;;;-143.60;73.29
68329;BME280;55182;56.864;60.554;2023-01-28T07:43:48;76673.38;;;-143.60;72.92
68329;BME280;55182;56.864;60.554;2023-01-28T07:46:13;76653.25;;;-143.60;72.59
68329;BME280;55182;56.864;60.554;2023-01-28T07:48:39;76661.31;;;-143.60;72.61
68329;BME280;55182;56.864;60.554;2023-01-28T07:51:05;76663.31;;;-143.60;72.24
68329;BME280;55182;56.864;60.554;2023-01-28T07:53:30;76655.28;;;-143.60;72.60
68329;BME280;55182;56.864;60.554;2023-01-28T07:55:59;76651.25;;;-143.60;72.65
68329;BME280;55182;56.864;60.554;2023-01-28T07:58:24;76665.31;;;-143.60;72.68
68329;BME280;55182;56.864;60.554;2023-01-28T08:00:50;76657.28;;;-143.60;73.12
68329;BME280;55182;56.864;60.554;2023-01-28T08:03:15;76657.28;;;-143.60;72.83
68329;BME280;55182;56.864;60.554;2023-01-28T08:05:45;76665.31;;;-143.60;73.33
68329;BME280;55182;56.864;60.554;2023-01-28T08:08:11;76681.41;;;-143.60;73.62
68329;BME280;55182;56.864;60.554;2023-01-28T08:10:37;76681.41;;;-143.60;73.80
68329;BME280;55182;56.864;60.554;2023-01-28T08:13:02;76661.31;;;-143.60;73.94
68329;BME280;55182;56.864;60.554;2023-01-28T08:15:28;76683.41;;;-143.60;74.27
68329;BME280;55182;56.864;60.554;2023-01-28T08:17:54;76699.50;;;-143.60;74.09
68329;BME280;55182;56.864;60.554;2023-01-28T08:20:20;76697.47;;;-143.60;74.44
68329;BME280;55182;56.864;60.554;2023-01-28T08:22:46;76691.44;;;-143.60;74.62
68329;BME280;55182;56.864;60.554;2023-01-28T08:25:11;76707.53;;;-143.60;74.42
68329;BME280;55182;56.864;60.554;2023-01-28T08:27:37;76693.47;;;-143.60;74.35
68329;BME280;55182;56.864;60.554;2023-01-28T08:30:03;76685.44;;;-143.60;74.64
68329;BME280;55182;56.864;60.554;2023-01-28T08:32:29;76687.44;;;-143.60;74.54
68329;BME280;55182;56.864;60.554;2023-01-28T08:34:55;76687.44;;;-143.60;74.38
68329;BME280;55182;56.864;60.554;2023-01-28T08:37:21;76693.47;;;-143.60;74.17
68329;BME280;55182;56.864;60.554;2023-01-28T08:39:47;76697.47;;;-143.60;74.46
68329;BME280;55182;56.864;60.554;2023-01-28T08:42:13;76693.47;;;-143.60;74.78
68329;BME280;55182;56.864;60.554;2023-01-28T08:44:39;76701.50;;;-143.60;74.81
68329;BME280;55182;56.864;60.554;2023-01-28T08:47:04;76701.50;;;-143.60;75.03
68329;BME280;55182;56.864;60.554;2023-01-28T08:49:30;76701.50;;;-143.60;75.12
68329;BME280;55182;56.864;60.554;2023-01-28T08:51:55;76705.53;;;-143.60;75.15
68329;BME280;55182;56.864;60.554;2023-01-28T08:54:21;76707.53;;;-143.60;75.10
68329;BME280;55182;56.864;60.554;2023-01-28T08:56:46;76699.50;;;-143.60;75.29
68329;BME280;55182;56.864;60.554;2023-01-28T08:59:12;76701.50;;;-143.60;74.92
68329;BME280;55182;56.864;60.554;2023-01-28T09:01:37;76709.53;;;-143.60;75.17
68329;BME280;55182;56.864;60.554;2023-01-28T09:04:03;76733.66;;;-143.60;75.45
68329;BME280;55182;56.864;60.554;2023-01-28T09:06:28;76727.63;;;-143.60;75.48
68329;BME280;55182;56.864;60.554;2023-01-28T09:08:57;76743.72;;;-143.60;75.90
68329;BME280;55182;56.864;60.554;2023-01-28T09:11:22;76735.66;;;-143.60;75.86
68329;BME280;55182;56.864;60.554;2023-01-28T09:13:48;76733.66;;;-143.60;75.75
68329;BME280;55182;56.864;60.554;2023-01-28T09:16:13;76721.59;;;-143.60;75.82
68329;BME280;55182;56.864;60.554;2023-01-28T09:18:39;76713.56;;;-143.60;75.99
68329;BME280;55182;56.864;60.554;2023-01-28T09:21:05;76715.56;;;-143.60;75.89
68329;BME280;55182;56.864;60.554;2023-01-28T09:23:33;76713.56;;;-143.60;75.82
68329;BME280;55182;56.864;60.554;2023-01-28T09:25:59;76715.56;;;-143.60;75.98
68329;BME280;55182;56.864;60.554;2023-01-28T09:28:25;76713.56;;;-143.60;76.01
68329;BME280;55182;56.864;60.554;2023-01-28T09:30:50;76715.56;;;-143.60;76.04
68329;BME280;55182;56.864;60.554;2023-01-28T09:33:16;76721.59;;;-143.60;76.28
68329;BME280;55182;56.864;60.554;2023-01-28T09:35:42;76725.63;;;-143.60;76.08
68329;BME280;55182;56.864;60.554;2023-01-28T09:38:08;76725.63;;;-143.60;75.80
68329;BME280;55182;56.864;60.554;2023-01-28T09:40:38;76721.59;;;-143.60;75.98
68329;BME280;55182;56.864;60.554;2023-01-28T09:45:49;76731.66;;;-143.60;76.17
68329;BME280;55182;56.864;60.554;2023-01-28T09:48:16;76741.69;;;-143.60;76.07
68329;BME280;55182;56.864;60.554;2023-01-28T09:50:52;76741.69;;;-143.60;76.17
68329;BME280;55182;56.864;60.554;2023-01-28T09:53:27;76737.69;;;-143.60;76.36
68329;BME280;55182;56.864;60.554;2023-01-28T09:55:55;76735.66;;;-143.60;76.28
68329;BME280;55182;56.864;60.554;2023-01-28T09:58:22;76731.66;;;-143.60;76.28
68329;BME280;55182;56.864;60.554;2023-01-28T10:11:34;76751.75;;;-143.60;76.37
68329;BME280;55182;56.864;60.554;2023-01-28T10:14:13;76743.72;;;-143.60;76.65
68329;BME280;55182;56.864;60.554;2023-01-28T10:16:51;76749.75;;;-143.60;76.58
68329;BME280;55182;56.864;60.554;2023-01-28T10:20:02;76757.78;;;-143.60;76.59
68329;BME280;55182;56.864;60.554;2023-01-28T10:22:11;76759.78;;;-143.60;76.90
68329;BME280;55182;56.864;60.554;2023-01-28T10:24:50;76765.81;;;-143.60;77.08
68329;BME280;55182;56.864;60.554;2023-01-28T10:27:21;76769.84;;;-143.60;76.94
68329;BME280;55182;56.864;60.554;2023-01-28T10:29:47;76771.84;;;-143.60;76.72
68329;BME280;55182;56.864;60.554;2023-01-28T10:34:45;76806.00;;;-143.60;76.75
68329;BME280;55182;56.864;60.554;2023-01-28T10:37:12;76802.00;;;-143.60;76.75
68329;BME280;55182;56.864;60.554;2023-01-28T10:39:38;76802.00;;;-143.60;76.87
68329;BME280;55182;56.864;60.554;2023-01-28T10:44:41;76806.00;;;-143.60;76.93
68329;BME280;55182;56.864;60.554;2023-01-28T10:47:20;76795.97;;;-143.60;77.15
68329;BME280;55182;56.864;60.554;2023-01-28T10:49:50;76802.00;;;-143.60;77.14
68329;BME280;55182;56.864;60.554;2023-01-28T10:52:18;76789.94;;;-143.60;77.36
68329;BME280;55182;56.864;60.554;2023-01-28T10:54:44;76781.91;;;-143.60;77.08
68329;BME280;55182;56.864;60.554;2023-01-28T10:57:11;76789.94;;;-143.60;77.03
68329;BME280;55182;56.864;60.554;2023-01-28T10:59:37;76789.94;;;-143.60;77.24
68329;BME280;55182;56.864;60.554;2023-01-28T11:02:04;76791.94;;;-143.60;77.09
68329;BME280;55182;56.864;60.554;2023-01-28T11:04:33;76793.94;;;-143.60;77.26
68329;BME280;55182;56.864;60.554;2023-01-28T11:07:06;76797.97;;;-143.60;77.29
68329;BME280;55182;56.864;60.554;2023-01-28T11:09:43;76789.94;;;-143.60;77.47
68329;BME280;55182;56.864;60.554;2023-01-28T11:12:10;76793.94;;;-143.60;77.56
68329;BME280;55182;56.864;60.554;2023-01-28T11:14:36;76797.97;;;-143.60;77.26
68329;BME280;55182;56.864;60.554;2023-01-28T11:17:02;76793.94;;;-143.60;77.53
68329;BME280;55182;56.864;60.554;2023-01-28T11:19:33;76802.00;;;-143.60;77.25
68329;BME280;55182;56.864;60.554;2023-01-28T11:21:59;76802.00;;;-143.60;77.42
68329;BME280;55182;56.864;60.554;2023-01-28T11:24:25;76812.03;;;-143.60;77.44
68329;BME280;55182;56.864;60.554;2023-01-28T11:26:53;76806.00;;;-143.60;77.39
68329;BME280;55182;56.864;60.554;2023-01-28T11:29:27;76814.06;;;-143.60;77.75
68329;BME280;55182;56.864;60.554;2023-01-28T11:31:54;76808.03;;;-143.60;77.42
68329;BME280;55182;56.864;60.554;2023-01-28T11:34:19;76806.00;;;-143.60;77.33
68329;BME280;55182;56.864;60.554;2023-01-28T11:37:11;76812.03;;;-143.60;77.37
68329;BME280;55182;56.864;60.554;2023-01-28T11:39:35;76810.03;;;-143.60;77.50
68329;BME280;55182;56.864;60.554;2023-01-28T11:42:11;76808.03;;;-143.60;77.32
68329;BME280;55182;56.864;60.554;2023-01-28T11:44:37;76810.03;;;-143.60;77.11
68329;BME280;55182;56.864;60.554;2023-01-28T11:47:21;76816.06;;;-143.60;77.06
68329;BME280;55182;56.864;60.554;2023-01-28T12:05:00;76846.22;;;-143.60;77.45
68329;BME280;55182;56.864;60.554;2023-01-28T12:10:13;76862.28;;;-143.60;77.66
68329;BME280;55182;56.864;60.554;2023-01-28T12:12:56;76870.31;;;-143.60;77.78
68329;BME280;55182;56.864;60.554;2023-01-28T12:20:27;76894.44;;;-143.60;77.93
68329;BME280;55182;56.864;60.554;2023-01-28T12:28:01;76890.41;;;-143.60;78.25
68329;BME280;55182;56.864;60.554;2023-01-28T12:30:30;76892.44;;;-143.60;77.90
68329;BME280;55182;56.864;60.554;2023-01-28T12:35:50;76884.41;;;-143.60;78.00
68329;BME280;55182;56.864;60.554;2023-01-28T12:38:25;76882.38;;;-143.60;77.96
68329;BME280;55182;56.864;60.554;2023-01-28T12:43:24;76886.41;;;-143.60;78.06
68329;BME280;55182;56.864;60.554;2023-01-28T12:45:55;76880.38;;;-143.60;78.26
68329;BME280;55182;56.864;60.554;2023-01-28T12:48:40;76870.31;;;-143.60;78.53
68329;BME280;55182;56.864;60.554;2023-01-28T12:51:13;76864.28;;;-143.60;78.30
68329;BME280;55182;56.864;60.554;2023-01-28T12:56:17;76878.38;;;-143.60;78.36
68329;BME280;55182;56.864;60.554;2023-01-28T12:58:55;76878.38;;;-143.60;78.26
68329;BME280;55182;56.864;60.554;2023-01-28T13:01:34;76872.34;;;-143.60;78.45
68329;BME280;55182;56.864;60.554;2023-01-28T13:06:52;76870.31;;;-143.60;78.30
68329;BME280;55182;56.864;60.554;2023-01-28T13:09:19;76874.34;;;-143.60;78.28
68329;BME280;55182;56.864;60.554;2023-01-28T13:11:46;76884.41;;;-143.60;78.20
68329;BME280;55182;56.864;60.554;2023-01-28T13:14:12;76890.41;;;-143.60;78.50
68329;BME280;55182;56.864;60.554;2023-01-28T13:16:38;76886.41;;;-143.60;78.69
68329;BME280;55182;56.864;60.554;2023-01-28T13:19:05;76892.44;;;-143.60;78.72
68329;BME280;55182;56.864;60.554;2023-01-28T13:21:32;76898.47;;;-143.60;78.88
68329;BME280;55182;56.864;60.554;2023-01-28T13:26:28;76898.47;;;-143.60;78.93
68329;BME280;55182;56.864;60.554;2023-01-28T13:29:06;76888.41;;;-143.60;78.83
68329;BME280;55182;56.864;60.554;2023-01-28T13:31:42;76894.44;;;-143.60;79.05
68329;BME280;55182;56.864;60.554;2023-01-28T13:34:10;76900.47;;;-143.60;79.30
68329;BME280;55182;56.864;60.554;2023-01-28T13:36:50;76906.50;;;-143.60;79.09
68329;BME280;55182;56.864;60.554;2023-01-28T13:41:43;76904.50;;;-143.60;79.11
68329;BME280;55182;56.864;60.554;2023-01-28T13:46:53;76898.47;;;-143.60;79.03
68329;BME280;55182;56.864;60.554;2023-01-28T13:49:27;76898.47;;;-143.60;79.09
68329;BME280;55182;56.864;60.554;2023-01-28T13:51:57;76888.41;;;-143.60;79.11
68329;BME280;55182;56.864;60.554;2023-01-28T13:54:23;76890.41;;;-143.60;78.98
68329;BME280;55182;56.864;60.554;2023-01-28T14:07:09;76910.53;;;-143.60;78.66
68329;BME280;55182;56.864;60.554;2023-01-28T14:17:43;76924.59;;;-143.60;79.01